This is the latest recevied weather packets stored in our database for station/object G4ZMG. If no packets are shown the sender has not sent any weather packets the latest 10 day(s).
| Time | Temp. | Humidity | Pressure | Rain* | Wind** | Luminosity | Snow |
|---|---|---|---|---|---|---|---|
| 1777518604 | 6.67° C | 82% | 1021.9 hPa | 0 mm | - | 0 W/m² | - |
| 1777518024 | 6.67° C | 82% | 1021.9 hPa | 0 mm | - | 0 W/m² | - |
| 1777517408 | 6.67° C | 81% | 1021.9 hPa | 0 mm | - | 0 W/m² | - |
| 1777516848 | 6.67° C | 81% | 1022 hPa | 0 mm | - | 0 W/m² | - |
| 1777516235 | 6.67° C | 81% | 1022.1 hPa | 0 mm | - | 0 W/m² | - |
| 1777515624 | 6.67° C | 80% | 1022.2 hPa | 0 mm | - | 0 W/m² | - |
| 1777515008 | 7.22° C | 80% | 1022.3 hPa | 0 mm | - | 0 W/m² | - |
| 1777514436 | 7.22° C | 79% | 1022.4 hPa | 0 mm | - | 0 W/m² | - |
| 1777513822 | 7.22° C | 79% | 1022.6 hPa | 0 mm | - | 0 W/m² | - |
| 1777513250 | 7.22° C | 78% | 1022.7 hPa | 0 mm | - | 0 W/m² | - |
| 1777512007 | 7.22° C | 78% | 1023 hPa | 0 mm | - | 0 W/m² | - |
| 1777511403 | 7.22° C | 78% | 1022.9 hPa | 0 mm | - | 0 W/m² | - |
| 1777509020 | 7.22° C | 76% | 1023 hPa | 0 mm | - | 0 W/m² | - |
| 1777508407 | 7.22° C | 76% | 1023 hPa | 0 mm | - | 0 W/m² | - |
| 1777507845 | 7.22° C | 75% | 1023.3 hPa | 0 mm | - | 0 W/m² | - |
| 1777506635 | 7.78° C | 74% | 1023.1 hPa | 0 mm | - | 0 W/m² | - |
| 1777505407 | 8.33° C | 73% | 1023.2 hPa | 0 mm | - | 0 W/m² | - |
| 1777500645 | 9.44° C | 69% | 1023.3 hPa | 0 mm | - | 0 W/m² | - |
| 1777500044 | 9.44° C | 68% | 1023.2 hPa | 0 mm | - | 0 W/m² | - |
| 1777499438 | 9.44° C | 68% | 1023.2 hPa | 0 mm | - | 0 W/m² | - |
| 1777498833 | 10° C | 67% | 1023.1 hPa | 0 mm | - | 0 W/m² | - |
| 1777497608 | 10° C | 66% | 1023.1 hPa | 0 mm | - | 0 W/m² | - |
| 1777497003 | 10.56° C | 66% | 1023 hPa | 0 mm | - | 0 W/m² | - |
| 1777494625 | 11.11° C | 63% | 1023 hPa | 0 mm | - | 0 W/m² | - |
| 1777490434 | 13.33° C | 54% | 1022.2 hPa | 0 mm | - | 7 W/m² | - |
* Rain latest hour (hover to see other rain measurements)
** Current wind speed in m/s (hover to see current wind gust speed)